createdAt,value
2018-09-13T00:04:08.219Z,25.04
2018-09-13T00:09:11.703Z,25.01
2018-09-13T00:14:15.171Z,24.96
2018-09-13T00:19:18.677Z,24.93
2018-09-13T00:24:22.222Z,24.88
2018-09-13T00:29:25.684Z,24.82
2018-09-13T00:34:29.196Z,24.75
2018-09-13T00:39:32.682Z,24.70
2018-09-13T00:44:36.145Z,24.66
2018-09-13T00:49:39.639Z,24.61
2018-09-13T00:54:43.158Z,24.57
2018-09-13T00:59:46.627Z,24.52
2018-09-13T01:04:50.091Z,24.48
2018-09-13T01:09:54.232Z,24.46
2018-09-13T01:14:57.672Z,24.43
2018-09-13T01:20:01.150Z,24.41
2018-09-13T01:25:05.085Z,24.38
2018-09-13T01:30:08.590Z,24.36
2018-09-13T01:35:12.060Z,24.35
2018-09-13T01:40:15.525Z,24.33
2018-09-13T01:45:18.988Z,24.29
2018-09-13T01:50:22.505Z,24.29
2018-09-13T01:55:26.157Z,24.27
2018-09-13T02:00:29.618Z,24.26
2018-09-13T02:05:33.093Z,24.25
2018-09-13T02:10:36.696Z,24.21
2018-09-13T02:15:40.178Z,24.20
2018-09-13T02:20:43.756Z,24.20
2018-09-13T02:25:47.264Z,24.17
2018-09-13T02:30:50.753Z,24.17
2018-09-13T02:35:54.236Z,24.16
2018-09-13T02:40:57.729Z,24.15
2018-09-13T02:46:01.218Z,24.14
2018-09-13T02:51:04.695Z,24.12
2018-09-13T02:56:08.164Z,24.11
2018-09-13T03:01:11.619Z,24.10
2018-09-13T03:06:15.121Z,24.09
2018-09-13T03:11:18.595Z,24.07
2018-09-13T03:16:22.047Z,24.05
2018-09-13T03:21:25.528Z,24.06
2018-09-13T03:26:28.998Z,24.04
2018-09-13T03:31:32.480Z,24.02
2018-09-13T03:36:35.948Z,23.99
2018-09-13T03:41:39.513Z,23.98
2018-09-13T03:46:42.989Z,24.00
2018-09-13T03:51:46.468Z,24.01
2018-09-13T03:56:49.902Z,24.05
2018-09-13T04:01:53.374Z,23.97
2018-09-13T04:06:56.815Z,23.96
2018-09-13T04:12:00.233Z,23.92
2018-09-13T04:17:03.679Z,23.91
2018-09-13T04:22:07.127Z,23.89
2018-09-13T04:27:10.913Z,23.87
2018-09-13T04:32:14.366Z,23.86
2018-09-13T04:37:17.816Z,23.88
2018-09-13T04:42:21.264Z,23.85
2018-09-13T04:47:24.698Z,23.82
2018-09-13T04:52:28.179Z,23.80
2018-09-13T04:57:31.620Z,23.80
2018-09-13T05:02:35.072Z,23.80
2018-09-13T05:07:38.529Z,23.80
2018-09-13T05:12:41.981Z,23.78
2018-09-13T05:17:45.420Z,23.77
2018-09-13T05:22:48.892Z,23.76
2018-09-13T05:27:52.308Z,23.75
2018-09-13T05:32:55.770Z,23.73
2018-09-13T05:37:59.199Z,23.70
2018-09-13T05:43:02.705Z,23.73
2018-09-13T05:48:06.124Z,23.74
2018-09-13T05:53:09.576Z,23.72
2018-09-13T05:58:13.023Z,23.70
2018-09-13T06:03:16.463Z,23.69
2018-09-13T06:08:19.894Z,23.70
2018-09-13T06:13:23.412Z,23.67
2018-09-13T06:18:26.829Z,23.66
2018-09-13T06:23:30.424Z,23.67
2018-09-13T06:28:33.896Z,23.71
2018-09-13T06:33:37.387Z,23.66
2018-09-13T06:38:40.832Z,23.65
2018-09-13T06:43:44.277Z,23.69
2018-09-13T06:48:47.749Z,23.69
2018-09-13T06:53:51.202Z,23.62
2018-09-13T06:58:54.695Z,22.80
2018-09-13T07:03:58.164Z,22.65
2018-09-13T07:09:01.615Z,22.52
2018-09-13T07:14:05.065Z,22.34
2018-09-13T07:19:08.587Z,22.04
2018-09-13T07:24:12.080Z,21.78
2018-09-13T07:29:15.527Z,21.75
2018-09-13T07:34:18.947Z,21.61
2018-09-13T07:39:22.412Z,21.62
2018-09-13T07:44:25.882Z,21.39
2018-09-13T07:49:29.365Z,21.53
2018-09-13T07:54:33.074Z,21.46
2018-09-13T07:59:36.527Z,21.24
2018-09-13T08:04:39.999Z,21.45
2018-09-13T08:09:43.436Z,21.79
2018-09-13T08:14:46.864Z,22.26
2018-09-13T08:19:50.286Z,22.51
2018-09-13T08:24:53.724Z,22.62
2018-09-13T08:29:57.292Z,22.68
2018-09-13T08:35:00.787Z,22.70
2018-09-13T08:40:04.499Z,22.84
2018-09-13T08:45:07.952Z,22.90
2018-09-13T08:50:11.398Z,22.95
2018-09-13T08:55:14.863Z,22.91
2018-09-13T09:00:18.300Z,23.07
2018-09-13T09:05:21.760Z,23.11
2018-09-13T09:10:25.239Z,23.15
2018-09-13T09:15:28.671Z,23.20
2018-09-13T09:20:32.140Z,23.26
2018-09-13T09:25:35.627Z,23.25
2018-09-13T09:30:39.068Z,23.26
2018-09-13T09:35:42.530Z,23.31
2018-09-13T09:40:45.981Z,23.32
2018-09-13T09:45:49.438Z,23.30
2018-09-13T09:50:52.874Z,23.35
2018-09-13T09:55:56.335Z,23.38
2018-09-13T10:01:05.089Z,23.39
2018-09-13T10:06:08.998Z,23.40
2018-09-13T10:11:12.460Z,23.42
2018-09-13T10:16:21.267Z,23.40
2018-09-13T10:21:30.012Z,23.40
2018-09-13T10:26:38.612Z,23.42
2018-09-13T10:31:47.199Z,23.43
2018-09-13T10:36:55.876Z,23.42
2018-09-13T10:42:04.780Z,23.45
2018-09-13T10:47:13.477Z,23.47
2018-09-13T10:52:20.945Z,23.42
2018-09-13T10:57:29.627Z,23.46
2018-09-13T11:02:33.082Z,23.48
2018-09-13T11:07:36.551Z,23.48
2018-09-13T11:12:47.996Z,23.47
2018-09-13T11:17:51.452Z,23.49
2018-09-13T11:22:55.606Z,23.49
2018-09-13T11:27:59.067Z,23.51
2018-09-13T11:33:02.547Z,23.49
2018-09-13T11:38:06.133Z,23.50
2018-09-13T11:43:09.624Z,23.52
2018-09-13T11:48:13.147Z,23.54
2018-09-13T11:53:16.609Z,23.55
2018-09-13T11:58:20.044Z,23.53
2018-09-13T12:03:23.588Z,23.54
2018-09-13T12:08:27.068Z,23.53
2018-09-13T12:13:30.525Z,23.55
2018-09-13T12:18:34.025Z,23.57
2018-09-13T12:23:37.480Z,23.58
2018-09-13T12:28:40.938Z,23.59
2018-09-13T12:33:44.444Z,23.60
2018-09-13T12:38:47.856Z,23.59
2018-09-13T12:43:51.294Z,23.61
2018-09-13T12:48:54.777Z,23.60
2018-09-13T12:53:58.234Z,23.60
2018-09-13T12:59:01.719Z,23.61
2018-09-13T13:04:05.164Z,23.66
2018-09-13T13:09:09.820Z,23.66
2018-09-13T13:14:13.250Z,23.73
2018-09-13T13:19:16.750Z,23.50
2018-09-13T13:24:20.249Z,23.48
2018-09-13T13:29:23.707Z,23.63
2018-09-13T13:34:27.173Z,23.68
2018-09-13T13:39:30.763Z,23.80
2018-09-13T13:44:34.448Z,23.72
2018-09-13T13:49:37.897Z,23.71
2018-09-13T13:54:41.338Z,23.70
2018-09-13T13:59:44.827Z,23.69
2018-09-13T14:04:48.279Z,23.69
2018-09-13T14:09:51.857Z,23.71
2018-09-13T14:14:55.251Z,23.69
2018-09-13T14:25:29.674Z,23.67
2018-09-13T14:30:33.129Z,23.67
2018-09-13T14:35:36.674Z,23.66
2018-09-13T14:40:40.089Z,23.66
2018-09-13T14:45:43.547Z,23.67
2018-09-13T14:50:47.021Z,23.67
2018-09-13T14:55:50.527Z,23.66
2018-09-13T15:00:54.016Z,23.65
2018-09-13T15:05:57.464Z,22.76
2018-09-13T15:11:00.911Z,23.12
2018-09-13T15:16:04.375Z,23.37
2018-09-13T15:21:07.817Z,23.09
2018-09-13T15:26:11.247Z,23.07
2018-09-13T15:31:14.723Z,23.16
2018-09-13T15:36:18.179Z,23.25
2018-09-13T15:41:21.654Z,23.22
2018-09-13T15:46:25.122Z,23.09
2018-09-13T15:51:28.616Z,23.33
2018-09-13T15:56:32.095Z,23.44
2018-09-13T16:01:35.555Z,23.50
2018-09-13T16:06:39.008Z,23.55
2018-09-13T16:11:42.451Z,23.62
2018-09-13T16:16:45.943Z,23.68
2018-09-13T16:21:49.408Z,23.70
2018-09-13T16:26:52.850Z,23.75
2018-09-13T17:45:07.316Z,23.31
2018-09-13T17:50:10.865Z,23.31
2018-09-13T17:55:14.337Z,23.43
2018-09-13T18:00:18.547Z,23.53
2018-09-13T18:05:22.106Z,23.56
2018-09-13T18:10:25.599Z,23.62
2018-09-13T18:15:29.224Z,23.61
2018-09-13T18:20:32.745Z,23.63
2018-09-13T19:16:15.607Z,23.91
2018-09-13T19:21:19.076Z,23.91
2018-09-13T19:26:22.533Z,23.93
2018-09-13T19:31:25.982Z,23.97
2018-09-13T19:36:29.408Z,23.97
2018-09-13T19:41:32.855Z,23.96
2018-09-13T19:46:36.334Z,24.03
2018-09-13T19:51:39.811Z,24.04
2018-09-13T19:56:43.279Z,23.98
2018-09-13T20:01:53.449Z,23.94
2018-09-13T20:06:56.905Z,23.94
2018-09-13T20:45:37.450Z,23.96
2018-09-13T20:50:41.301Z,24.02
2018-09-13T20:55:45.159Z,24.09
2018-09-13T21:00:48.776Z,24.07
2018-09-13T21:11:30.439Z,24.03
2018-09-13T21:16:34.618Z,24.03
2018-09-13T21:21:38.256Z,23.96
2018-09-13T21:26:42.275Z,23.97
2018-09-13T21:31:45.900Z,24.00
2018-09-13T21:36:49.372Z,23.96
2018-09-13T21:41:52.843Z,24.00
2018-09-13T21:46:56.418Z,23.97
2018-09-13T21:57:27.360Z,24.07
2018-09-13T22:02:31.111Z,24.06
2018-09-13T22:07:34.760Z,24.10
2018-09-13T22:12:38.212Z,24.13
2018-09-13T22:17:41.716Z,24.10
2018-09-13T22:22:45.244Z,24.09
2018-09-13T22:27:48.672Z,24.07
2018-09-13T22:32:52.178Z,24.07
2018-09-13T22:37:56.298Z,24.07
2018-09-13T22:43:00.291Z,24.07
2018-09-13T22:48:04.464Z,24.11
2018-09-13T22:53:08.603Z,24.09
2018-09-13T22:58:12.698Z,24.09
2018-09-13T23:03:16.203Z,24.11
2018-09-13T23:08:19.639Z,24.10
2018-09-13T23:13:23.232Z,24.08
2018-09-13T23:18:26.678Z,24.07
2018-09-13T23:23:30.143Z,24.06
2018-09-13T23:28:33.592Z,24.07
2018-09-13T23:33:37.084Z,24.09
2018-09-13T23:38:40.546Z,24.06
2018-09-13T23:43:44.005Z,24.07
2018-09-13T23:48:47.453Z,24.06
2018-09-13T23:53:51.028Z,24.07
2018-09-13T23:58:54.493Z,24.09
